Time;durP1;ratioP1;P1;durP2;ratioP2;P2;SDS_P1;SDS_P2;PMS_P1;PMS_P2;Temp;Humidity;BMP_temperature;BMP_pressure;BME280_temperature;BME280_humidity;BME280_pressure;Samples;Min_cycle;Max_cycle;Signal;HPM_P1;HPM_P2
2024/01/24 00:01:34;;;;;;;337.45;167.35;;;;;;;19.12;39.08;100739.75;5001950;28;20120;-85
2024/01/24 00:04:00;;;;;;;351.95;173.40;;;;;;;18.47;39.07;100656.56;4986063;28;20133;-85
2024/01/24 00:06:26;;;;;;;367.83;179.13;;;;;;;19.16;39.16;100746.31;4984097;28;20046;-85
2024/01/24 00:08:52;;;;;;;392.05;188.85;;;;;;;19.13;38.92;100723.72;5002192;28;20029;-86
2024/01/24 00:11:18;;;;;;;415.70;198.82;;;;;;;19.13;39.13;100729.00;4988376;28;20046;-86
2024/01/24 00:13:43;;;;;;;425.77;203.07;;;;;;;19.14;39.06;100759.69;4956368;28;20029;-86
2024/01/24 00:16:09;;;;;;;444.40;210.75;;;;;;;19.16;38.99;100759.50;4968353;28;20037;-85
2024/01/24 00:18:34;;;;;;;444.90;210.85;;;;;;;19.27;39.08;100810.09;4971598;28;20034;-86
2024/01/24 00:21:00;;;;;;;462.98;218.95;;;;;;;19.18;39.06;100791.81;4988325;28;20038;-85
2024/01/24 00:23:25;;;;;;;470.02;222.80;;;;;;;19.14;38.94;100799.28;4968005;28;20045;-85
2024/01/24 00:25:51;;;;;;;462.38;217.85;;;;;;;19.18;39.04;100776.00;4970763;28;20049;-83
2024/01/24 00:28:17;;;;;;;454.67;214.50;;;;;;;19.11;39.01;100751.31;4969122;28;20345;-85
2024/01/24 00:30:46;;;;;;;426.95;202.85;;;;;;;19.04;39.03;100747.75;4986823;28;20034;-84
2024/01/24 00:33:11;;;;;;;352.88;173.48;;;;;;;19.16;39.25;100757.69;5001884;28;20443;-85
2024/01/24 00:35:37;;;;;;;406.30;193.93;;;;;;;19.15;39.10;100760.50;4974439;28;20080;-83
2024/01/24 00:38:02;;;;;;;410.10;195.80;;;;;;;19.11;39.20;100744.22;4986138;28;20038;-83
2024/01/24 00:40:28;;;;;;;396.63;190.00;;;;;;;19.19;39.26;100773.16;4987644;28;20033;-84
2024/01/24 00:42:54;;;;;;;381.73;185.02;;;;;;;19.23;39.29;100739.34;4982334;28;20437;-84
2024/01/24 00:45:19;;;;;;;389.00;187.25;;;;;;;19.06;39.17;100740.47;4982144;28;20034;-84
2024/01/24 00:47:45;;;;;;;397.15;189.57;;;;;;;19.12;39.23;100711.53;4982507;28;20454;-84
2024/01/24 00:50:10;;;;;;;404.88;192.75;;;;;;;19.23;39.26;100747.25;4997008;28;20057;-85
2024/01/24 00:52:36;;;;;;;416.85;197.38;;;;;;;19.18;39.22;100747.78;4982426;28;20046;-83
2024/01/24 00:55:01;;;;;;;419.90;199.23;;;;;;;19.22;39.39;100767.56;4978590;28;20108;-83
2024/01/24 00:57:27;;;;;;;422.50;200.55;;;;;;;19.09;39.21;100689.97;4969638;28;20046;-83
2024/01/24 00:59:53;;;;;;;411.67;196.13;;;;;;;19.01;39.44;100699.56;4969961;28;20039;-83
2024/01/24 01:02:18;;;;;;;410.55;195.90;;;;;;;19.21;39.21;100725.47;4967580;28;20049;-84
2024/01/24 01:04:44;;;;;;;401.88;192.68;;;;;;;19.05;39.37;100686.88;4997645;28;20038;-83
2024/01/24 01:07:10;;;;;;;364.48;177.60;;;;;;;19.22;39.32;100693.63;5003734;28;20049;-83
2024/01/24 01:09:38;;;;;;;361.63;176.90;;;;;;;19.13;39.35;100691.25;5000548;28;20529;-83
2024/01/24 01:12:04;;;;;;;359.83;176.43;;;;;;;18.91;39.36;100666.53;5000852;28;20045;-83
2024/01/24 01:14:29;;;;;;;354.30;173.65;;;;;;;19.05;39.28;100696.59;4985984;28;20104;-83
2024/01/24 01:16:55;;;;;;;349.65;172.20;;;;;;;19.06;39.43;100690.31;4966162;28;20310;-83
2024/01/24 01:19:20;;;;;;;340.60;169.00;;;;;;;19.12;39.43;100684.31;4999521;28;20042;-83
2024/01/24 01:21:46;;;;;;;328.08;163.88;;;;;;;19.13;39.40;100676.22;4979241;28;20050;-83
2024/01/24 01:24:12;;;;;;;299.92;154.07;;;;;;;19.20;39.45;100689.50;4968405;28;20038;-84
2024/01/24 01:26:37;;;;;;;271.00;144.75;;;;;;;19.18;39.39;100689.69;4984377;28;20459;-83
2024/01/24 01:29:03;;;;;;;280.58;147.98;;;;;;;19.09;39.41;100682.03;4983150;28;20089;-84
2024/01/24 01:31:29;;;;;;;272.35;144.75;;;;;;;19.07;39.28;100678.75;4982250;28;20633;-83
2024/01/24 01:33:54;;;;;;;292.90;151.55;;;;;;;19.13;39.46;100675.41;4983973;28;20053;-83
2024/01/24 01:36:20;;;;;;;293.45;151.85;;;;;;;19.16;39.48;100678.50;4983532;28;20041;-84
2024/01/24 01:38:45;;;;;;;266.70;142.57;;;;;;;19.06;39.53;100685.03;5002293;28;20049;-83
2024/01/24 01:41:11;;;;;;;266.73;142.85;;;;;;;19.06;39.53;100667.38;4980068;28;20121;-84
2024/01/24 01:43:37;;;;;;;273.10;144.25;;;;;;;19.18;39.61;100733.75;4985044;28;20049;-85
2024/01/24 01:46:10;;;;;;;272.60;144.10;;;;;;;19.14;39.61;100716.63;4979714;28;20065;-83
2024/01/24 01:48:37;;;;;;;268.70;142.90;;;;;;;19.16;39.48;100738.38;5002487;28;20617;-83
2024/01/24 01:51:03;;;;;;;273.40;144.23;;;;;;;19.16;39.53;100726.00;4998945;28;20065;-83
2024/01/24 01:53:29;;;;;;;273.55;143.95;;;;;;;19.05;39.45;100725.63;4972179;28;20239;-83
2024/01/24 01:55:55;;;;;;;271.52;143.73;;;;;;;19.09;39.48;100706.63;4981316;28;20054;-83
2024/01/24 01:58:21;;;;;;;296.58;152.35;;;;;;;18.98;39.65;100707.03;4981458;28;20493;-83
2024/01/24 02:00:49;;;;;;;305.15;155.05;;;;;;;19.14;39.80;100708.72;5003005;28;20037;-83
2024/01/24 02:03:15;;;;;;;319.75;160.70;;;;;;;19.16;39.59;100727.84;4984521;28;20048;-83
2024/01/24 02:05:42;;;;;;;318.90;160.23;;;;;;;19.07;39.69;100691.97;4984587;28;20041;-83
2024/01/24 02:08:07;;;;;;;293.30;151.32;;;;;;;19.08;39.61;100693.59;4968104;28;20061;-83
2024/01/24 02:10:33;;;;;;;278.23;147.18;;;;;;;19.06;39.49;100712.25;4999973;28;20107;-83
2024/01/24 02:13:00;;;;;;;273.67;146.32;;;;;;;19.15;39.77;100742.84;4999729;28;20148;-84
2024/01/24 02:15:26;;;;;;;275.17;145.70;;;;;;;19.06;39.57;100706.16;4977536;28;20557;-84
2024/01/24 02:17:52;;;;;;;283.30;148.00;;;;;;;19.08;39.59;100707.63;4997356;28;20064;-82
2024/01/24 02:20:18;;;;;;;280.67;147.85;;;;;;;19.07;39.67;100705.97;4963381;28;20034;-83
2024/01/24 02:22:44;;;;;;;297.05;152.88;;;;;;;19.16;39.69;100733.94;4981748;28;20045;-83
2024/01/24 02:25:10;;;;;;;276.58;146.02;;;;;;;19.05;39.83;100691.31;4983093;28;20370;-83
2024/01/24 02:27:35;;;;;;;270.02;144.07;;;;;;;19.01;39.57;100694.28;4995791;28;20058;-82
2024/01/24 02:30:01;;;;;;;277.75;146.38;;;;;;;19.11;39.73;100736.28;4996186;28;20033;-82
2024/01/24 02:32:26;;;;;;;287.38;149.18;;;;;;;19.10;39.77;100728.56;4984557;28;20034;-83
2024/01/24 02:34:52;;;;;;;306.80;155.68;;;;;;;18.94;39.77;100698.66;4966057;28;20045;-83
2024/01/24 02:37:21;;;;;;;315.08;159.07;;;;;;;18.98;39.71;100697.28;4997663;28;20100;-82
2024/01/24 02:39:47;;;;;;;308.52;156.32;;;;;;;19.06;39.71;100722.81;4975863;28;20037;-83
2024/01/24 02:42:13;;;;;;;316.00;158.68;;;;;;;18.99;39.47;100716.56;4964522;28;20498;-83
2024/01/24 02:44:39;;;;;;;311.98;157.02;;;;;;;19.09;39.67;100717.19;4984790;28;20184;-84
2024/01/24 02:47:04;;;;;;;331.95;165.98;;;;;;;19.09;39.50;100719.00;4977097;28;20030;-83
2024/01/24 02:49:30;;;;;;;333.67;166.63;;;;;;;19.16;39.60;100719.91;4998792;28;20034;-83
2024/01/24 02:52:01;;;;;;;346.00;171.45;;;;;;;18.96;39.88;100690.56;4984572;28;20038;-83
2024/01/24 02:54:26;;;;;;;338.15;168.80;;;;;;;19.17;39.81;100718.91;5000290;28;20049;-83
2024/01/24 02:56:52;;;;;;;324.55;162.88;;;;;;;19.01;39.71;100701.38;4950023;28;20042;-83
2024/01/24 02:59:18;;;;;;;325.63;163.38;;;;;;;18.95;39.82;100691.56;4965598;28;20107;-84
2024/01/24 03:01:44;;;;;;;330.95;165.23;;;;;;;19.00;39.70;100699.75;4964737;28;20463;-82
2024/01/24 03:04:09;;;;;;;336.58;167.82;;;;;;;19.12;39.65;100722.09;4965173;28;20111;-82
2024/01/24 03:06:35;;;;;;;349.92;173.45;;;;;;;18.98;39.72;100733.41;5001555;28;20481;-82
2024/01/24 03:09:01;;;;;;;331.33;165.60;;;;;;;18.98;39.82;100707.84;4983454;28;20038;-83
2024/01/24 03:11:27;;;;;;;286.58;149.77;;;;;;;18.98;39.84;100715.75;4970316;28;20041;-83
2024/01/24 03:13:53;;;;;;;297.70;154.00;;;;;;;19.01;39.79;100731.25;4986203;28;20037;-83
2024/01/24 03:16:18;;;;;;;288.13;150.57;;;;;;;18.93;39.87;100704.91;4969281;28;20080;-82
2024/01/24 03:18:44;;;;;;;278.05;146.68;;;;;;;19.01;39.87;100707.47;4987860;28;20500;-82
2024/01/24 03:21:15;;;;;;;270.42;144.18;;;;;;;18.91;39.71;100693.72;4992711;28;20046;-83
2024/01/24 03:23:41;;;;;;;273.40;144.98;;;;;;;19.01;39.94;100723.31;4985866;28;20041;-82
2024/01/24 03:26:07;;;;;;;279.50;146.82;;;;;;;19.02;40.13;100714.41;5000591;28;20685;-81
2024/01/24 03:28:33;;;;;;;278.13;146.63;;;;;;;19.10;39.81;100715.34;5004593;28;20179;-82
2024/01/24 03:31:00;;;;;;;303.25;154.50;;;;;;;18.99;39.84;100714.75;4987482;28;20056;-82
2024/01/24 03:33:25;;;;;;;320.85;160.73;;;;;;;19.10;39.72;100704.78;5004526;28;20079;-83
2024/01/24 03:35:51;;;;;;;341.77;170.00;;;;;;;19.12;39.85;100742.38;4972601;28;20041;-83
2024/01/24 03:38:17;;;;;;;343.75;170.25;;;;;;;18.81;39.92;100701.03;4988831;28;20647;-83
2024/01/24 03:40:43;;;;;;;339.55;168.13;;;;;;;18.93;40.07;100722.56;4986824;28;20030;-83
2024/01/24 03:43:10;;;;;;;353.70;174.35;;;;;;;18.99;39.89;100732.41;4987469;28;20072;-83
2024/01/24 03:45:37;;;;;;;365.77;179.13;;;;;;;19.08;39.81;100764.84;4980600;28;20467;-84
2024/01/24 03:48:04;;;;;;;364.65;178.45;;;;;;;19.05;39.76;100742.28;4988085;28;20033;-83
2024/01/24 03:50:29;;;;;;;382.63;186.10;;;;;;;18.98;39.69;100707.84;5000896;28;20217;-83
2024/01/24 03:52:55;;;;;;;376.27;183.07;;;;;;;19.08;39.78;100741.09;4971033;28;20078;-84
2024/01/24 03:55:20;;;;;;;369.15;180.38;;;;;;;19.07;39.98;100740.28;4973008;28;20057;-83
2024/01/24 03:57:46;;;;;;;380.38;184.85;;;;;;;19.09;39.76;100726.91;4983620;28;20030;-83
2024/01/24 04:00:12;;;;;;;384.48;187.00;;;;;;;19.02;39.77;100727.59;4986234;28;20038;-82
2024/01/24 04:02:40;;;;;;;335.15;166.85;;;;;;;18.99;39.87;100716.56;5002690;28;20045;-82
2024/01/24 04:05:06;;;;;;;351.02;173.73;;;;;;;18.92;39.90;100732.31;5001018;28;20037;-81
2024/01/24 04:07:31;;;;;;;327.88;163.27;;;;;;;18.98;39.90;100746.59;4982972;28;20072;-83
2024/01/24 04:09:58;;;;;;;311.27;158.20;;;;;;;19.02;40.02;100734.69;4998404;28;20046;-81
2024/01/24 04:12:24;;;;;;;297.58;153.77;;;;;;;18.89;39.87;100729.19;4998689;28;20112;-81
2024/01/24 04:14:50;;;;;;;311.63;157.85;;;;;;;19.01;40.07;100749.72;4965238;28;20427;-82
2024/01/24 04:17:15;;;;;;;325.58;163.20;;;;;;;18.23;39.89;100612.72;4984952;28;20300;-82
2024/01/24 04:19:41;;;;;;;334.83;165.98;;;;;;;19.02;39.83;100742.59;4981180;28;20096;-81
2024/01/24 04:22:07;;;;;;;323.92;162.43;;;;;;;18.84;39.98;100729.72;5001898;28;20069;-82
2024/01/24 04:24:33;;;;;;;367.00;179.35;;;;;;;19.01;39.87;100746.25;4968395;28;20045;-82
2024/01/24 04:26:58;;;;;;;372.67;181.48;;;;;;;19.02;39.72;100754.00;5000854;28;21102;-83
2024/01/24 04:29:24;;;;;;;379.63;184.38;;;;;;;18.94;40.07;100735.59;4971497;28;20037;-81
2024/01/24 04:31:49;;;;;;;382.48;185.18;;;;;;;18.89;39.92;100753.78;4969966;28;20042;-81
2024/01/24 04:34:17;;;;;;;385.33;186.40;;;;;;;18.89;39.91;100774.06;4970472;28;20049;-83
2024/01/24 04:36:46;;;;;;;380.25;184.73;;;;;;;18.85;39.89;100749.00;4983806;28;20030;-82
2024/01/24 04:39:11;;;;;;;353.80;174.02;;;;;;;19.00;40.01;100760.44;4998429;28;20672;-82
2024/01/24 04:41:37;;;;;;;352.58;173.25;;;;;;;18.84;40.09;100764.00;5001221;28;20124;-82
2024/01/24 04:44:04;;;;;;;368.95;180.07;;;;;;;18.81;40.09;100766.19;4995273;28;20485;-83
2024/01/24 04:46:30;;;;;;;349.77;171.68;;;;;;;18.97;39.98;100803.03;4983553;28;20034;-83
2024/01/24 04:48:55;;;;;;;328.38;164.27;;;;;;;18.98;40.04;100802.84;4983059;28;20116;-82
2024/01/24 04:51:24;;;;;;;326.80;164.18;;;;;;;18.77;40.07;100792.09;5003090;28;20042;-83
2024/01/24 04:53:50;;;;;;;314.90;159.60;;;;;;;18.83;39.99;100804.56;4967224;28;20052;-82
2024/01/24 04:56:16;;;;;;;296.30;152.77;;;;;;;18.92;39.99;100808.81;4970139;28;20081;-82
2024/01/24 04:58:42;;;;;;;286.67;149.35;;;;;;;18.75;40.02;100775.63;5002117;28;20053;-82
2024/01/24 05:01:07;;;;;;;292.92;151.40;;;;;;;18.95;39.99;100820.84;4984529;28;20293;-82
2024/01/24 05:03:33;;;;;;;299.42;153.48;;;;;;;18.95;40.14;100834.03;4983522;28;20042;-82
2024/01/24 05:05:59;;;;;;;306.10;156.15;;;;;;;18.93;40.01;100818.38;4996953;28;20045;-82
2024/01/24 05:08:24;;;;;;;303.67;155.23;;;;;;;18.90;40.09;100837.22;4964521;28;20045;-82
2024/01/24 05:10:50;;;;;;;303.10;154.30;;;;;;;18.67;40.07;100794.97;4953452;28;20048;-82
2024/01/24 05:13:16;;;;;;;329.08;164.65;;;;;;;18.81;40.08;100825.03;5000653;28;20033;-82
2024/01/24 05:15:41;;;;;;;331.60;164.88;;;;;;;18.85;40.05;100833.41;4966075;28;20632;-82
2024/01/24 05:18:07;;;;;;;313.77;158.45;;;;;;;18.84;40.03;100835.25;4953568;28;20053;-82
2024/01/24 05:20:32;;;;;;;318.42;159.85;;;;;;;18.91;40.10;100849.41;4981915;28;20029;-82
2024/01/24 05:22:58;;;;;;;310.80;157.18;;;;;;;18.85;39.86;100822.88;4981379;28;20034;-82
2024/01/24 05:25:24;;;;;;;314.35;158.45;;;;;;;18.97;40.02;100851.34;4982542;28;20633;-82
2024/01/24 05:27:50;;;;;;;321.15;160.82;;;;;;;19.07;39.81;100834.47;5001871;28;20048;-82
2024/01/24 05:30:15;;;;;;;367.02;178.82;;;;;;;18.92;39.82;100853.69;4999498;28;20524;-82
2024/01/24 05:32:41;;;;;;;382.40;184.35;;;;;;;19.04;39.83;100853.31;4980891;28;20039;-83
2024/01/24 05:35:07;;;;;;;380.80;184.23;;;;;;;18.94;39.96;100849.06;4986899;28;20065;-82
2024/01/24 05:37:32;;;;;;;369.35;180.13;;;;;;;18.93;40.00;100855.31;4999197;28;20039;-82
2024/01/24 05:39:58;;;;;;;361.58;177.13;;;;;;;18.86;40.00;100850.94;4965707;28;20053;-82
2024/01/24 05:42:23;;;;;;;371.25;180.50;;;;;;;18.97;39.95;100856.63;4968998;28;20656;-81
2024/01/24 05:44:49;;;;;;;370.55;180.50;;;;;;;18.97;39.98;100877.72;4952172;28;20042;-82
2024/01/24 05:47:15;;;;;;;362.73;178.43;;;;;;;18.93;39.89;100878.25;4977846;28;20045;-82
2024/01/24 05:49:41;;;;;;;357.10;175.20;;;;;;;19.02;39.80;100895.69;4967598;28;20042;-83
2024/01/24 05:52:07;;;;;;;360.83;177.55;;;;;;;18.93;39.80;100897.56;4981725;28;20739;-83
2024/01/24 05:54:33;;;;;;;352.50;173.93;;;;;;;19.02;39.87;100919.44;4996981;28;20204;-84
2024/01/24 05:56:58;;;;;;;344.15;170.52;;;;;;;19.02;39.98;100916.78;4984630;28;20062;-83
2024/01/24 05:59:24;;;;;;;339.10;169.20;;;;;;;18.92;39.81;100903.81;4985475;28;20050;-84
2024/01/24 06:01:52;;;;;;;351.92;175.10;;;;;;;18.90;39.93;100891.81;4979377;28;20176;-85
2024/01/24 06:04:18;;;;;;;351.42;173.45;;;;;;;18.90;39.84;100887.34;4969583;28;20117;-85
2024/01/24 06:06:43;;;;;;;349.73;172.85;;;;;;;18.92;39.85;100906.47;4982548;28;20505;-84
2024/01/24 06:09:09;;;;;;;341.35;169.93;;;;;;;19.06;39.84;100917.28;4969388;28;20034;-84
2024/01/24 06:11:35;;;;;;;354.63;174.27;;;;;;;19.04;39.84;100924.56;4984894;28;20058;-84
2024/01/24 06:14:01;;;;;;;353.20;174.13;;;;;;;19.06;39.83;100925.22;5000439;28;20115;-84
2024/01/24 06:16:26;;;;;;;368.83;180.38;;;;;;;18.87;40.01;100892.16;4984636;28;20049;-85
2024/01/24 06:18:52;;;;;;;369.38;180.27;;;;;;;19.02;39.80;100935.25;5001734;28;20080;-85
2024/01/24 06:21:17;;;;;;;385.75;187.55;;;;;;;18.99;39.81;100923.25;4965332;28;20042;-84
2024/01/24 06:23:43;;;;;;;389.50;188.32;;;;;;;19.04;39.91;100940.41;4984870;28;20477;-84
2024/01/24 06:26:09;;;;;;;382.77;185.35;;;;;;;18.82;39.90;100890.00;4952483;28;20034;-84
2024/01/24 06:28:34;;;;;;;372.90;182.05;;;;;;;18.95;39.75;100940.41;4999691;28;20049;-84
2024/01/24 06:31:00;;;;;;;357.02;175.65;;;;;;;19.09;39.74;100953.91;4968169;28;20046;-85
2024/01/24 06:33:25;;;;;;;357.73;176.40;;;;;;;19.06;39.88;100952.44;4981424;28;20038;-84
2024/01/24 06:35:51;;;;;;;353.00;173.88;;;;;;;18.90;39.79;100919.00;4986201;28;20044;-84
2024/01/24 06:38:16;;;;;;;343.92;170.15;;;;;;;18.92;39.83;100921.47;4974352;28;20038;-84
2024/01/24 06:40:42;;;;;;;326.83;163.70;;;;;;;19.07;39.69;100966.44;4973219;28;20181;-83
2024/01/24 06:43:08;;;;;;;320.95;161.63;;;;;;;18.97;39.82;100959.53;4968555;28;20045;-83
2024/01/24 06:45:33;;;;;;;338.35;168.40;;;;;;;18.99;39.77;100922.41;4987274;28;20096;-83
2024/01/24 06:47:59;;;;;;;320.98;161.73;;;;;;;19.01;39.82;100966.13;5001767;28;20659;-84
2024/01/24 06:50:24;;;;;;;306.27;156.98;;;;;;;18.93;39.77;100958.25;4951538;28;20648;-84
2024/01/24 06:52:51;;;;;;;297.75;154.13;;;;;;;18.98;39.69;100984.13;4969792;28;20042;-85
2024/01/24 06:55:17;;;;;;;302.75;156.27;;;;;;;19.06;39.92;100975.38;4980980;28;20042;-84
2024/01/24 06:57:43;;;;;;;303.45;155.75;;;;;;;18.94;39.88;100973.06;4979994;28;20077;-84
2024/01/24 07:00:09;;;;;;;311.40;158.02;;;;;;;18.90;39.68;100981.50;4982075;28;20057;-84
2024/01/24 07:02:36;;;;;;;316.05;159.35;;;;;;;19.06;39.75;101002.56;4967082;28;20073;-85
2024/01/24 07:05:05;;;;;;;332.30;166.40;;;;;;;19.00;39.78;100987.41;4965504;28;20073;-85
2024/01/24 07:07:31;;;;;;;317.88;160.07;;;;;;;19.00;39.84;100992.69;4985084;28;20045;-86
2024/01/24 07:09:57;;;;;;;333.50;167.07;;;;;;;18.99;39.75;100997.13;4968198;28;20649;-84
2024/01/24 07:12:23;;;;;;;338.27;168.00;;;;;;;19.04;39.68;101004.56;4984289;28;20046;-84
2024/01/24 07:14:48;;;;;;;340.13;169.50;;;;;;;18.94;39.73;100966.97;4969204;28;20128;-85
2024/01/24 07:17:15;;;;;;;331.27;165.27;;;;;;;19.00;39.71;101013.78;4998406;28;20044;-85
2024/01/24 07:19:40;;;;;;;343.63;170.68;;;;;;;19.10;39.59;101000.41;4999732;28;20044;-86
2024/01/24 07:22:06;;;;;;;344.00;170.18;;;;;;;19.05;39.75;100993.00;4994662;28;20038;-85
2024/01/24 07:24:32;;;;;;;341.83;169.95;;;;;;;18.97;39.63;100985.09;4982611;28;20045;-85
2024/01/24 07:26:58;;;;;;;369.15;180.18;;;;;;;18.99;39.66;101017.44;4983084;28;20109;-85
2024/01/24 07:29:23;;;;;;;375.52;183.38;;;;;;;18.95;39.72;100989.72;4998878;28;20038;-85
2024/01/24 07:31:49;;;;;;;374.80;181.88;;;;;;;19.07;39.82;101046.44;4979782;28;20037;-85
2024/01/24 07:34:18;;;;;;;364.02;178.25;;;;;;;19.02;39.67;101023.19;5000270;28;20041;-85
2024/01/24 07:36:44;;;;;;;327.02;164.52;;;;;;;19.08;39.72;101050.75;4992277;28;20034;-84
2024/01/24 07:39:10;;;;;;;345.48;171.10;;;;;;;18.40;39.68;100922.75;4978978;28;20048;-84
2024/01/24 07:41:35;;;;;;;342.17;170.18;;;;;;;19.06;39.69;101059.81;4984028;28;20550;-83
2024/01/24 07:44:01;;;;;;;353.67;174.80;;;;;;;19.09;39.66;101041.00;4968442;28;20517;-83
2024/01/24 07:46:27;;;;;;;357.08;175.43;;;;;;;19.10;39.62;101050.56;4981507;28;20042;-84
2024/01/24 07:48:53;;;;;;;368.88;181.40;;;;;;;19.03;39.73;101047.78;5000046;28;20762;-83
2024/01/24 07:51:23;;;;;;;362.50;178.95;;;;;;;19.12;39.59;101053.84;4984905;28;20387;-84
2024/01/24 07:53:48;;;;;;;353.75;174.35;;;;;;;18.99;39.56;101049.09;4993879;28;20030;-84
2024/01/24 07:56:14;;;;;;;362.98;178.15;;;;;;;19.04;39.59;101072.38;4962875;28;20054;-83
2024/01/24 07:58:40;;;;;;;374.73;182.55;;;;;;;19.15;39.52;101082.53;4977937;28;20049;-83
2024/01/24 08:01:09;;;;;;;412.20;197.40;;;;;;;19.13;39.43;101079.25;4995904;28;20034;-83
2024/01/24 08:03:35;;;;;;;409.67;197.02;;;;;;;19.24;39.42;101065.72;4979566;28;20052;-83
2024/01/24 08:06:00;;;;;;;405.00;195.55;;;;;;;19.25;39.13;101057.63;5003316;28;20030;-83
2024/01/24 08:08:26;;;;;;;406.30;195.98;;;;;;;19.29;38.99;101069.47;4987236;28;20442;-84
2024/01/24 08:10:52;;;;;;;424.98;202.25;;;;;;;19.05;39.21;101044.97;5005451;28;20042;-84
2024/01/24 08:13:19;;;;;;;430.58;204.10;;;;;;;19.38;39.26;101109.88;4987556;28;20057;-84
2024/01/24 08:15:46;;;;;;;418.42;200.27;;;;;;;19.26;39.26;101100.69;4993771;28;20131;-83
2024/01/24 08:18:12;;;;;;;419.35;200.10;;;;;;;19.31;39.29;101114.19;4987686;28;20704;-84
2024/01/24 08:20:38;;;;;;;435.40;206.80;;;;;;;19.41;39.22;101116.66;5002109;28;20033;-82
2024/01/24 08:23:03;;;;;;;415.75;199.60;;;;;;;19.35;39.26;101110.22;4986484;28;20042;-85
2024/01/24 08:25:29;;;;;;;393.05;189.93;;;;;;;19.29;39.22;101100.34;4970369;28;20048;-85
2024/01/24 08:27:55;;;;;;;405.45;195.82;;;;;;;19.38;39.09;101095.84;4980997;28;20045;-85
2024/01/24 08:30:20;;;;;;;422.63;201.77;;;;;;;19.37;39.37;101116.16;4971089;28;20545;-85
2024/01/24 08:32:46;;;;;;;411.95;198.50;;;;;;;19.19;39.31;101099.69;4951156;28;20111;-85
2024/01/24 08:35:12;;;;;;;410.58;197.07;;;;;;;19.36;39.28;101137.44;4969218;28;20161;-85
2024/01/24 08:37:38;;;;;;;414.05;198.55;;;;;;;19.36;39.26;101132.97;4986119;28;20131;-85
2024/01/24 08:40:05;;;;;;;414.50;198.68;;;;;;;19.27;39.50;101131.38;4968359;28;20038;-85
2024/01/24 08:42:31;;;;;;;407.73;195.98;;;;;;;19.24;39.34;101129.06;4986025;28;20042;-89
2024/01/24 08:44:56;;;;;;;395.60;190.95;;;;;;;19.27;39.34;101126.09;4954041;28;20430;-85
2024/01/24 08:47:22;;;;;;;394.83;191.05;;;;;;;19.15;39.35;101136.16;4983780;28;20709;-86
2024/01/24 08:49:48;;;;;;;389.15;189.52;;;;;;;19.35;39.44;101168.31;4967933;28;20041;-85
2024/01/24 08:52:14;;;;;;;360.70;178.05;;;;;;;19.04;39.20;101106.69;4964801;28;20667;-85
2024/01/24 08:54:42;;;;;;;369.38;181.68;;;;;;;19.25;39.24;101128.06;4953197;28;20034;-85
2024/01/24 08:57:10;;;;;;;381.63;186.02;;;;;;;19.29;39.52;101126.75;4968532;28;20054;-84
2024/01/24 08:59:38;;;;;;;397.63;192.82;;;;;;;19.32;39.35;101197.69;4967595;28;20375;-85
2024/01/24 09:02:04;;;;;;;391.95;191.07;;;;;;;19.20;39.61;101160.25;4962879;28;20425;-87
2024/01/24 09:04:31;;;;;;;390.38;189.95;;;;;;;19.32;39.46;101203.81;4969709;28;20053;-85
2024/01/24 09:06:56;;;;;;;386.13;188.00;;;;;;;19.34;39.55;101190.44;4967476;28;20046;-85
2024/01/24 09:09:22;;;;;;;386.58;189.07;;;;;;;19.30;39.33;101174.09;4971737;28;20511;-82
2024/01/24 09:11:48;;;;;;;385.52;188.45;;;;;;;19.35;39.44;101209.75;4968817;28;20057;-86
2024/01/24 09:14:14;;;;;;;382.70;187.70;;;;;;;19.25;39.37;101192.28;4970279;28;20128;-85
2024/01/24 09:16:39;;;;;;;354.77;175.75;;;;;;;19.17;39.31;101167.69;4996289;28;20037;-83
2024/01/24 09:19:05;;;;;;;406.88;195.77;;;;;;;19.33;39.50;101210.72;4972228;28;20794;-84
2024/01/24 09:21:30;;;;;;;407.17;196.02;;;;;;;19.28;39.58;101217.50;5001965;28;20026;-84
2024/01/24 09:23:56;;;;;;;408.58;196.30;;;;;;;19.36;39.77;101200.81;4983213;28;20053;-80
2024/01/24 09:26:22;;;;;;;412.45;197.48;;;;;;;19.28;39.83;101205.13;4983003;28;20460;-82
2024/01/24 09:28:47;;;;;;;403.27;193.90;;;;;;;19.27;40.01;101237.00;5002372;28;20061;-82
2024/01/24 09:31:13;;;;;;;428.58;203.85;;;;;;;19.26;39.88;101212.41;4998032;28;20398;-79
2024/01/24 09:33:39;;;;;;;413.80;197.40;;;;;;;19.31;39.79;101215.34;4969309;28;20034;-80
2024/01/24 09:36:05;;;;;;;413.73;198.90;;;;;;;19.25;39.80;101234.50;4984518;28;20042;-79
2024/01/24 09:38:30;;;;;;;405.98;196.02;;;;;;;19.39;39.68;101270.00;4980331;28;20041;-79
2024/01/24 09:41:01;;;;;;;431.35;205.02;;;;;;;19.25;39.70;101260.91;4968464;28;20104;-79
2024/01/24 09:43:29;;;;;;;439.42;208.82;;;;;;;19.20;39.61;101260.56;4999143;28;20034;-80
2024/01/24 09:45:57;;;;;;;425.90;203.88;;;;;;;19.35;39.73;101267.84;4979055;28;20059;-79
2024/01/24 09:48:23;;;;;;;471.55;222.57;;;;;;;19.32;39.42;101272.47;4980056;28;20513;-79
2024/01/24 09:50:49;;;;;;;472.60;222.75;;;;;;;19.33;39.74;101284.66;4979027;28;20046;-79
2024/01/24 09:53:19;;;;;;;488.10;230.90;;;;;;;19.07;39.48;101222.47;5000090;28;20069;-79
2024/01/24 09:55:46;;;;;;;481.48;227.75;;;;;;;19.27;39.63;101276.59;4998363;28;20144;-79
2024/01/24 09:58:11;;;;;;;474.90;223.38;;;;;;;19.23;39.63;101273.47;4985932;28;20427;-80
2024/01/24 10:00:37;;;;;;;480.40;227.02;;;;;;;19.27;39.57;101263.38;4968350;28;20049;-80
2024/01/24 10:03:03;;;;;;;489.95;231.07;;;;;;;19.20;39.60;101260.56;4979510;28;20169;-79
2024/01/24 10:05:30;;;;;;;484.33;227.57;;;;;;;19.36;39.55;101288.78;4979573;28;20044;-80
2024/01/24 10:07:56;;;;;;;478.17;225.73;;;;;;;19.40;39.53;101297.22;4998452;28;20048;-80
2024/01/24 10:10:21;;;;;;;473.75;221.88;;;;;;;19.22;39.54;101279.75;4983539;28;20552;-80
2024/01/24 10:12:47;;;;;;;455.27;213.68;;;;;;;19.44;39.43;101302.00;4983565;28;20053;-81
2024/01/24 10:15:13;;;;;;;435.02;206.10;;;;;;;19.46;39.18;101307.94;4980590;28;20053;-80
2024/01/24 10:17:42;;;;;;;427.38;203.77;;;;;;;19.28;39.37;101317.84;4982659;28;20494;-80
2024/01/24 10:20:09;;;;;;;428.90;204.50;;;;;;;19.12;39.89;101313.38;4980560;28;20030;-78
2024/01/24 10:22:35;;;;;;;430.55;204.93;;;;;;;19.24;39.92;101327.09;4962996;28;20076;-78
2024/01/24 10:25:01;;;;;;;455.50;214.75;;;;;;;19.39;39.65;101333.38;4981178;28;20053;-79
2024/01/24 10:27:27;;;;;;;458.20;216.40;;;;;;;19.52;39.80;101307.28;4983852;28;20041;-78
2024/01/24 10:29:52;;;;;;;464.77;219.43;;;;;;;19.70;39.49;101332.72;4969662;28;20051;-78
2024/01/24 10:32:19;;;;;;;470.10;223.32;;;;;;;19.61;39.54;101306.31;4949416;28;20042;-79
2024/01/24 10:34:44;;;;;;;476.75;225.65;;;;;;;19.69;39.47;101288.81;4995228;28;20151;-78
2024/01/24 10:37:11;;;;;;;466.60;220.63;;;;;;;19.70;39.51;101325.63;4969434;28;20041;-79
2024/01/24 10:39:37;;;;;;;467.95;221.60;;;;;;;19.73;39.60;101342.97;4964818;28;20037;-78
2024/01/24 10:42:08;;;;;;;458.23;216.85;;;;;;;19.77;39.71;101366.25;4984862;28;20406;-77
2024/01/24 10:44:35;;;;;;;456.08;216.25;;;;;;;19.70;39.68;101353.88;4980361;28;20473;-78
2024/01/24 10:47:04;;;;;;;461.52;218.40;;;;;;;19.71;39.79;101347.59;4965860;28;20367;-78
2024/01/24 10:49:31;;;;;;;433.27;207.48;;;;;;;19.75;39.77;101370.91;4982390;28;20073;-78